sensor_id;sensor_type;location;lat;lon;timestamp;temperature;humidity
17815;DHT22;9031;50.974;11.330;2023-02-28T00:01:17;-0.20;88.90
17815;DHT22;9031;50.974;11.330;2023-02-28T00:03:42;-0.30;89.20
17815;DHT22;9031;50.974;11.330;2023-02-28T00:06:09;-0.50;89.80
17815;DHT22;9031;50.974;11.330;2023-02-28T00:08:38;-0.40;89.60
17815;DHT22;9031;50.974;11.330;2023-02-28T00:11:06;-0.30;89.10
17815;DHT22;9031;50.974;11.330;2023-02-28T00:13:34;-0.50;89.30
17815;DHT22;9031;50.974;11.330;2023-02-28T00:16:09;-0.50;88.90
17815;DHT22;9031;50.974;11.330;2023-02-28T00:18:35;-0.50;89.30
17815;DHT22;9031;50.974;11.330;2023-02-28T00:21:01;-0.60;89.60
17815;DHT22;9031;50.974;11.330;2023-02-28T00:23:27;-0.60;90.10
17815;DHT22;9031;50.974;11.330;2023-02-28T00:25:53;-0.80;90.20
17815;DHT22;9031;50.974;11.330;2023-02-28T00:28:18;-0.90;90.80
17815;DHT22;9031;50.974;11.330;2023-02-28T00:30:44;-0.70;90.40
17815;DHT22;9031;50.974;11.330;2023-02-28T00:33:10;-0.70;90.40
17815;DHT22;9031;50.974;11.330;2023-02-28T00:35:35;-0.60;90.10
17815;DHT22;9031;50.974;11.330;2023-02-28T00:38:01;-0.50;90.10
17815;DHT22;9031;50.974;11.330;2023-02-28T00:40:27;-0.70;90.30
17815;DHT22;9031;50.974;11.330;2023-02-28T00:42:53;-0.60;90.30
17815;DHT22;9031;50.974;11.330;2023-02-28T00:45:18;-0.40;89.30
17815;DHT22;9031;50.974;11.330;2023-02-28T00:47:44;-0.40;89.40
17815;DHT22;9031;50.974;11.330;2023-02-28T00:50:11;-0.50;89.40
17815;DHT22;9031;50.974;11.330;2023-02-28T00:52:37;-0.70;90.10
17815;DHT22;9031;50.974;11.330;2023-02-28T00:55:03;-0.60;90.50
17815;DHT22;9031;50.974;11.330;2023-02-28T00:57:28;-0.40;89.50
17815;DHT22;9031;50.974;11.330;2023-02-28T00:59:54;-0.50;89.60
17815;DHT22;9031;50.974;11.330;2023-02-28T01:02:21;-0.40;89.60
17815;DHT22;9031;50.974;11.330;2023-02-28T01:04:46;-0.30;88.80
17815;DHT22;9031;50.974;11.330;2023-02-28T01:07:12;-0.20;88.40
17815;DHT22;9031;50.974;11.330;2023-02-28T01:09:38;-0.30;88.70
17815;DHT22;9031;50.974;11.330;2023-02-28T01:12:03;-0.30;89.20
17815;DHT22;9031;50.974;11.330;2023-02-28T01:14:29;-0.30;89.40
17815;DHT22;9031;50.974;11.330;2023-02-28T01:16:54;-0.40;89.00
17815;DHT22;9031;50.974;11.330;2023-02-28T01:19:20;-0.40;89.40
17815;DHT22;9031;50.974;11.330;2023-02-28T01:21:45;-0.40;89.30
17815;DHT22;9031;50.974;11.330;2023-02-28T01:24:11;-0.50;89.60
17815;DHT22;9031;50.974;11.330;2023-02-28T01:26:36;-0.40;89.30
17815;DHT22;9031;50.974;11.330;2023-02-28T01:29:02;-0.40;89.60
17815;DHT22;9031;50.974;11.330;2023-02-28T01:31:27;-0.30;89.80
17815;DHT22;9031;50.974;11.330;2023-02-28T01:33:53;-0.40;89.40
17815;DHT22;9031;50.974;11.330;2023-02-28T01:36:21;-0.30;89.40
17815;DHT22;9031;50.974;11.330;2023-02-28T01:38:47;-0.30;88.70
17815;DHT22;9031;50.974;11.330;2023-02-28T01:41:29;-0.20;88.30
17815;DHT22;9031;50.974;11.330;2023-02-28T01:44:04;-0.40;88.10
17815;DHT22;9031;50.974;11.330;2023-02-28T01:46:32;-0.60;88.90
17815;DHT22;9031;50.974;11.330;2023-02-28T01:49:15;-0.60;88.40
17815;DHT22;9031;50.974;11.330;2023-02-28T01:51:51;-0.60;89.10
17815;DHT22;9031;50.974;11.330;2023-02-28T01:54:26;-0.50;88.40
17815;DHT22;9031;50.974;11.330;2023-02-28T01:57:00;-0.50;89.10
17815;DHT22;9031;50.974;11.330;2023-02-28T01:59:33;-0.40;88.30
17815;DHT22;9031;50.974;11.330;2023-02-28T02:02:01;-0.20;87.40
17815;DHT22;9031;50.974;11.330;2023-02-28T02:04:38;-0.30;87.70
17815;DHT22;9031;50.974;11.330;2023-02-28T02:07:07;-0.50;88.00
17815;DHT22;9031;50.974;11.330;2023-02-28T02:09:33;-0.40;88.10
17815;DHT22;9031;50.974;11.330;2023-02-28T02:12:01;-0.50;88.50
17815;DHT22;9031;50.974;11.330;2023-02-28T02:17:42;-0.50;87.80
17815;DHT22;9031;50.974;11.330;2023-02-28T02:23:14;-0.40;87.20
17815;DHT22;9031;50.974;11.330;2023-02-28T02:25:57;-0.50;87.20
17815;DHT22;9031;50.974;11.330;2023-02-28T02:28:54;-0.60;87.50
17815;DHT22;9031;50.974;11.330;2023-02-28T02:39:34;-0.70;87.50
17815;DHT22;9031;50.974;11.330;2023-02-28T02:42:04;-0.60;86.50
17815;DHT22;9031;50.974;11.330;2023-02-28T02:44:42;-0.40;85.70
17815;DHT22;9031;50.974;11.330;2023-02-28T02:47:13;-0.60;85.90
17815;DHT22;9031;50.974;11.330;2023-02-28T02:49:43;-0.50;85.40
17815;DHT22;9031;50.974;11.330;2023-02-28T02:52:15;-0.60;86.20
17815;DHT22;9031;50.974;11.330;2023-02-28T02:54:45;-0.50;86.30
17815;DHT22;9031;50.974;11.330;2023-02-28T02:57:20;-0.50;86.20
17815;DHT22;9031;50.974;11.330;2023-02-28T02:59:48;-0.50;85.60
17815;DHT22;9031;50.974;11.330;2023-02-28T03:02:15;-0.60;86.50
17815;DHT22;9031;50.974;11.330;2023-02-28T03:05:01;-0.70;86.90
17815;DHT22;9031;50.974;11.330;2023-02-28T03:07:27;-0.60;86.20
17815;DHT22;9031;50.974;11.330;2023-02-28T03:09:55;-0.80;86.00
17815;DHT22;9031;50.974;11.330;2023-02-28T03:12:23;-0.90;87.20
17815;DHT22;9031;50.974;11.330;2023-02-28T03:15:07;-1.10;87.60
17815;DHT22;9031;50.974;11.330;2023-02-28T03:18:01;-0.90;88.30
17815;DHT22;9031;50.974;11.330;2023-02-28T03:23:38;-0.80;88.00
17815;DHT22;9031;50.974;11.330;2023-02-28T03:26:13;-0.90;87.00
17815;DHT22;9031;50.974;11.330;2023-02-28T03:29:35;-0.90;87.10
17815;DHT22;9031;50.974;11.330;2023-02-28T03:32:36;-0.80;87.10
17815;DHT22;9031;50.974;11.330;2023-02-28T03:35:12;-0.80;87.20
17815;DHT22;9031;50.974;11.330;2023-02-28T03:37:42;-0.80;87.30
17815;DHT22;9031;50.974;11.330;2023-02-28T03:40:19;-0.80;87.30
17815;DHT22;9031;50.974;11.330;2023-02-28T03:42:49;-0.70;87.40
17815;DHT22;9031;50.974;11.330;2023-02-28T03:45:19;-0.70;88.40
17815;DHT22;9031;50.974;11.330;2023-02-28T03:47:51;-0.70;87.20
17815;DHT22;9031;50.974;11.330;2023-02-28T03:50:21;-0.80;88.50
17815;DHT22;9031;50.974;11.330;2023-02-28T03:53:05;-0.70;87.00
17815;DHT22;9031;50.974;11.330;2023-02-28T03:55:39;-0.80;86.80
17815;DHT22;9031;50.974;11.330;2023-02-28T03:58:17;-0.90;87.80
17815;DHT22;9031;50.974;11.330;2023-02-28T04:01:07;-0.80;87.00
17815;DHT22;9031;50.974;11.330;2023-02-28T04:03:37;-0.80;87.50
17815;DHT22;9031;50.974;11.330;2023-02-28T04:06:04;-0.80;87.30
17815;DHT22;9031;50.974;11.330;2023-02-28T04:08:31;-0.70;87.10
17815;DHT22;9031;50.974;11.330;2023-02-28T04:11:03;-0.80;87.40
17815;DHT22;9031;50.974;11.330;2023-02-28T04:13:29;-0.90;87.70
17815;DHT22;9031;50.974;11.330;2023-02-28T04:15:55;-0.90;88.60
17815;DHT22;9031;50.974;11.330;2023-02-28T04:18:20;-1.00;89.50
17815;DHT22;9031;50.974;11.330;2023-02-28T04:20:46;-1.00;88.50
17815;DHT22;9031;50.974;11.330;2023-02-28T04:23:11;-1.00;88.50
17815;DHT22;9031;50.974;11.330;2023-02-28T04:25:37;-0.90;88.00
17815;DHT22;9031;50.974;11.330;2023-02-28T04:28:02;-0.80;87.70
17815;DHT22;9031;50.974;11.330;2023-02-28T04:30:28;-0.80;86.70
17815;DHT22;9031;50.974;11.330;2023-02-28T04:32:54;-0.80;86.80
17815;DHT22;9031;50.974;11.330;2023-02-28T04:35:20;-0.80;87.00
17815;DHT22;9031;50.974;11.330;2023-02-28T04:37:45;-0.90;87.00
17815;DHT22;9031;50.974;11.330;2023-02-28T04:40:11;-0.80;86.70
17815;DHT22;9031;50.974;11.330;2023-02-28T04:42:36;-0.80;87.00
17815;DHT22;9031;50.974;11.330;2023-02-28T04:45:03;-0.70;86.50
17815;DHT22;9031;50.974;11.330;2023-02-28T04:47:29;-0.80;86.50
17815;DHT22;9031;50.974;11.330;2023-02-28T04:49:55;-0.70;86.50
17815;DHT22;9031;50.974;11.330;2023-02-28T04:52:20;-0.80;86.30
17815;DHT22;9031;50.974;11.330;2023-02-28T04:54:46;-0.90;86.70
17815;DHT22;9031;50.974;11.330;2023-02-28T04:57:11;-1.00;86.90
17815;DHT22;9031;50.974;11.330;2023-02-28T04:59:37;-0.90;86.90
17815;DHT22;9031;50.974;11.330;2023-02-28T05:02:02;-1.00;87.10
17815;DHT22;9031;50.974;11.330;2023-02-28T05:04:33;-1.00;87.30
17815;DHT22;9031;50.974;11.330;2023-02-28T05:07:00;-1.00;88.50
17815;DHT22;9031;50.974;11.330;2023-02-28T05:09:25;-1.00;87.30
17815;DHT22;9031;50.974;11.330;2023-02-28T05:11:51;-1.00;87.70
17815;DHT22;9031;50.974;11.330;2023-02-28T05:14:16;-1.20;88.10
17815;DHT22;9031;50.974;11.330;2023-02-28T05:16:42;-1.10;87.90
17815;DHT22;9031;50.974;11.330;2023-02-28T05:19:08;-1.00;87.30
17815;DHT22;9031;50.974;11.330;2023-02-28T05:21:38;-0.90;86.70
17815;DHT22;9031;50.974;11.330;2023-02-28T05:24:10;-1.00;86.70
17815;DHT22;9031;50.974;11.330;2023-02-28T05:26:37;-1.10;87.30
17815;DHT22;9031;50.974;11.330;2023-02-28T05:29:04;-1.10;87.60
17815;DHT22;9031;50.974;11.330;2023-02-28T05:31:30;-1.10;86.80
17815;DHT22;9031;50.974;11.330;2023-02-28T05:33:55;-1.20;87.50
17815;DHT22;9031;50.974;11.330;2023-02-28T05:36:21;-1.20;87.70
17815;DHT22;9031;50.974;11.330;2023-02-28T05:38:48;-1.20;87.60
17815;DHT22;9031;50.974;11.330;2023-02-28T05:41:14;-1.30;87.60
17815;DHT22;9031;50.974;11.330;2023-02-28T05:43:39;-1.30;88.00
17815;DHT22;9031;50.974;11.330;2023-02-28T05:46:06;-1.40;88.50
17815;DHT22;9031;50.974;11.330;2023-02-28T05:48:34;-1.40;89.30
17815;DHT22;9031;50.974;11.330;2023-02-28T05:51:00;-1.50;88.80
17815;DHT22;9031;50.974;11.330;2023-02-28T05:53:25;-1.60;89.40
17815;DHT22;9031;50.974;11.330;2023-02-28T05:55:51;-1.60;89.40
17815;DHT22;9031;50.974;11.330;2023-02-28T05:58:17;-1.70;90.00
17815;DHT22;9031;50.974;11.330;2023-02-28T06:00:42;-1.70;90.10
17815;DHT22;9031;50.974;11.330;2023-02-28T06:03:08;-1.60;90.00
17815;DHT22;9031;50.974;11.330;2023-02-28T06:05:33;-1.60;89.10
17815;DHT22;9031;50.974;11.330;2023-02-28T06:07:59;-1.70;89.70
17815;DHT22;9031;50.974;11.330;2023-02-28T06:10:24;-1.60;89.70
17815;DHT22;9031;50.974;11.330;2023-02-28T06:12:50;-1.60;89.90
17815;DHT22;9031;50.974;11.330;2023-02-28T06:15:16;-1.70;90.00
17815;DHT22;9031;50.974;11.330;2023-02-28T06:17:43;-1.70;89.90
17815;DHT22;9031;50.974;11.330;2023-02-28T06:20:09;-1.70;89.60
17815;DHT22;9031;50.974;11.330;2023-02-28T06:22:36;-1.70;90.00
17815;DHT22;9031;50.974;11.330;2023-02-28T06:25:03;-1.70;89.70
17815;DHT22;9031;50.974;11.330;2023-02-28T06:27:30;-1.80;90.00
17815;DHT22;9031;50.974;11.330;2023-02-28T06:29:56;-1.70;89.50
17815;DHT22;9031;50.974;11.330;2023-02-28T06:32:22;-1.80;90.10
17815;DHT22;9031;50.974;11.330;2023-02-28T06:34:47;-1.70;90.10
17815;DHT22;9031;50.974;11.330;2023-02-28T06:37:13;-1.80;90.00
17815;DHT22;9031;50.974;11.330;2023-02-28T06:39:38;-1.80;89.80
17815;DHT22;9031;50.974;11.330;2023-02-28T06:42:05;-1.70;90.10
17815;DHT22;9031;50.974;11.330;2023-02-28T06:44:30;-1.60;89.30
17815;DHT22;9031;50.974;11.330;2023-02-28T06:47:01;-1.50;88.70
17815;DHT22;9031;50.974;11.330;2023-02-28T06:49:29;-1.50;88.50
17815;DHT22;9031;50.974;11.330;2023-02-28T06:51:54;-1.50;88.80
17815;DHT22;9031;50.974;11.330;2023-02-28T06:54:20;-1.40;88.40
17815;DHT22;9031;50.974;11.330;2023-02-28T06:56:45;-1.40;88.90
17815;DHT22;9031;50.974;11.330;2023-02-28T06:59:12;-1.30;87.70
17815;DHT22;9031;50.974;11.330;2023-02-28T07:01:37;-1.20;87.60
17815;DHT22;9031;50.974;11.330;2023-02-28T07:04:05;-1.20;88.20
17815;DHT22;9031;50.974;11.330;2023-02-28T07:06:31;-1.30;88.20
17815;DHT22;9031;50.974;11.330;2023-02-28T07:08:56;-1.20;88.20
17815;DHT22;9031;50.974;11.330;2023-02-28T07:11:24;-1.10;87.20
17815;DHT22;9031;50.974;11.330;2023-02-28T07:13:51;-1.00;86.70
17815;DHT22;9031;50.974;11.330;2023-02-28T07:16:17;-1.10;87.60
17815;DHT22;9031;50.974;11.330;2023-02-28T07:18:43;-0.80;85.90
17815;DHT22;9031;50.974;11.330;2023-02-28T07:21:10;-0.80;86.40
17815;DHT22;9031;50.974;11.330;2023-02-28T07:23:36;-0.70;86.30
17815;DHT22;9031;50.974;11.330;2023-02-28T07:26:04;-0.80;86.30
17815;DHT22;9031;50.974;11.330;2023-02-28T07:28:30;-0.70;86.30
17815;DHT22;9031;50.974;11.330;2023-02-28T07:30:55;-0.60;86.00
17815;DHT22;9031;50.974;11.330;2023-02-28T07:33:21;-0.50;85.70
17815;DHT22;9031;50.974;11.330;2023-02-28T07:35:46;-0.40;85.60
17815;DHT22;9031;50.974;11.330;2023-02-28T07:38:12;-0.30;83.80
17815;DHT22;9031;50.974;11.330;2023-02-28T07:40:39;-0.10;83.20
17815;DHT22;9031;50.974;11.330;2023-02-28T07:43:05;-0.10;83.10
17815;DHT22;9031;50.974;11.330;2023-02-28T07:45:30;0.00;83.00
17815;DHT22;9031;50.974;11.330;2023-02-28T07:47:58;0.10;82.20
17815;DHT22;9031;50.974;11.330;2023-02-28T07:50:23;0.40;80.60
17815;DHT22;9031;50.974;11.330;2023-02-28T07:52:49;0.50;79.30
17815;DHT22;9031;50.974;11.330;2023-02-28T07:55:14;0.60;78.90
17815;DHT22;9031;50.974;11.330;2023-02-28T07:57:41;0.80;78.00
17815;DHT22;9031;50.974;11.330;2023-02-28T08:00:09;0.90;76.50
17815;DHT22;9031;50.974;11.330;2023-02-28T08:02:35;0.80;76.40
17815;DHT22;9031;50.974;11.330;2023-02-28T08:05:01;0.80;75.80
17815;DHT22;9031;50.974;11.330;2023-02-28T08:07:27;0.60;76.30
17815;DHT22;9031;50.974;11.330;2023-02-28T08:09:52;0.70;76.00
17815;DHT22;9031;50.974;11.330;2023-02-28T08:12:18;0.80;75.80
17815;DHT22;9031;50.974;11.330;2023-02-28T08:14:43;0.70;75.10
17815;DHT22;9031;50.974;11.330;2023-02-28T08:17:09;1.00;74.90
17815;DHT22;9031;50.974;11.330;2023-02-28T08:19:35;1.10;74.80
17815;DHT22;9031;50.974;11.330;2023-02-28T08:22:01;1.00;74.80
17815;DHT22;9031;50.974;11.330;2023-02-28T08:24:26;1.00;75.20
17815;DHT22;9031;50.974;11.330;2023-02-28T08:26:52;0.90;75.60
17815;DHT22;9031;50.974;11.330;2023-02-28T08:29:17;0.90;75.40
17815;DHT22;9031;50.974;11.330;2023-02-28T08:31:43;1.00;75.60
17815;DHT22;9031;50.974;11.330;2023-02-28T08:34:10;1.40;73.60
17815;DHT22;9031;50.974;11.330;2023-02-28T08:36:36;1.70;72.60
17815;DHT22;9031;50.974;11.330;2023-02-28T08:39:02;1.80;71.70
17815;DHT22;9031;50.974;11.330;2023-02-28T08:41:28;1.70;72.00
17815;DHT22;9031;50.974;11.330;2023-02-28T08:43:54;2.10;71.80
17815;DHT22;9031;50.974;11.330;2023-02-28T08:46:20;2.30;70.60
17815;DHT22;9031;50.974;11.330;2023-02-28T08:48:45;2.30;68.70
17815;DHT22;9031;50.974;11.330;2023-02-28T08:51:14;2.20;69.10
17815;DHT22;9031;50.974;11.330;2023-02-28T08:53:41;1.90;71.00
17815;DHT22;9031;50.974;11.330;2023-02-28T08:56:09;2.10;69.10
17815;DHT22;9031;50.974;11.330;2023-02-28T08:58:35;1.90;68.00
17815;DHT22;9031;50.974;11.330;2023-02-28T09:01:11;1.90;67.70
17815;DHT22;9031;50.974;11.330;2023-02-28T09:03:37;2.10;68.40
17815;DHT22;9031;50.974;11.330;2023-02-28T09:06:03;2.00;67.20
17815;DHT22;9031;50.974;11.330;2023-02-28T09:08:30;2.10;65.90
17815;DHT22;9031;50.974;11.330;2023-02-28T09:10:56;2.20;66.80
17815;DHT22;9031;50.974;11.330;2023-02-28T09:13:23;2.40;64.40
17815;DHT22;9031;50.974;11.330;2023-02-28T09:15:49;2.60;63.50
17815;DHT22;9031;50.974;11.330;2023-02-28T09:18:15;2.60;63.10
17815;DHT22;9031;50.974;11.330;2023-02-28T09:20:41;3.10;62.50
17815;DHT22;9031;50.974;11.330;2023-02-28T09:23:08;3.20;61.40
17815;DHT22;9031;50.974;11.330;2023-02-28T09:25:35;3.10;59.00
17815;DHT22;9031;50.974;11.330;2023-02-28T09:28:00;2.90;60.40
17815;DHT22;9031;50.974;11.330;2023-02-28T09:30:26;2.70;60.80
17815;DHT22;9031;50.974;11.330;2023-02-28T09:32:52;3.00;62.00
17815;DHT22;9031;50.974;11.330;2023-02-28T09:35:19;3.30;60.70
17815;DHT22;9031;50.974;11.330;2023-02-28T09:37:46;3.50;60.20
17815;DHT22;9031;50.974;11.330;2023-02-28T09:40:13;3.50;56.80
17815;DHT22;9031;50.974;11.330;2023-02-28T09:42:40;2.70;57.60
17815;DHT22;9031;50.974;11.330;2023-02-28T09:45:19;2.50;58.70
17815;DHT22;9031;50.974;11.330;2023-02-28T09:47:48;2.10;58.80
17815;DHT22;9031;50.974;11.330;2023-02-28T09:52:53;1.90;59.10
17815;DHT22;9031;50.974;11.330;2023-02-28T09:55:42;2.10;60.00
17815;DHT22;9031;50.974;11.330;2023-02-28T09:58:05;2.70;55.80
17815;DHT22;9031;50.974;11.330;2023-02-28T10:00:40;2.30;56.50
17815;DHT22;9031;50.974;11.330;2023-02-28T10:03:32;1.90;56.30
17815;DHT22;9031;50.974;11.330;2023-02-28T10:06:14;1.70;57.40
17815;DHT22;9031;50.974;11.330;2023-02-28T10:09:05;2.00;57.30
17815;DHT22;9031;50.974;11.330;2023-02-28T10:11:36;2.20;57.20
17815;DHT22;9031;50.974;11.330;2023-02-28T10:14:18;2.30;56.40
17815;DHT22;9031;50.974;11.330;2023-02-28T10:17:08;2.20;56.80
17815;DHT22;9031;50.974;11.330;2023-02-28T10:19:47;2.20;56.40
17815;DHT22;9031;50.974;11.330;2023-02-28T10:22:26;2.10;55.30
17815;DHT22;9031;50.974;11.330;2023-02-28T10:24:55;2.10;56.20
17815;DHT22;9031;50.974;11.330;2023-02-28T10:27:31;2.30;56.10
17815;DHT22;9031;50.974;11.330;2023-02-28T10:30:00;2.50;55.40
17815;DHT22;9031;50.974;11.330;2023-02-28T10:32:30;2.20;56.10
17815;DHT22;9031;50.974;11.330;2023-02-28T10:35:01;2.30;56.20
17815;DHT22;9031;50.974;11.330;2023-02-28T10:37:31;2.80;54.60
17815;DHT22;9031;50.974;11.330;2023-02-28T10:39:57;3.40;54.20
17815;DHT22;9031;50.974;11.330;2023-02-28T10:42:28;3.30;52.70
17815;DHT22;9031;50.974;11.330;2023-02-28T10:45:16;3.30;52.80
17815;DHT22;9031;50.974;11.330;2023-02-28T10:48:03;5.30;47.10
17815;DHT22;9031;50.974;11.330;2023-02-28T10:50:52;6.10;45.90
17815;DHT22;9031;50.974;11.330;2023-02-28T11:00:58;4.60;48.50
17815;DHT22;9031;50.974;11.330;2023-02-28T11:03:31;3.70;51.10
17815;DHT22;9031;50.974;11.330;2023-02-28T11:05:58;7.10;45.90
17815;DHT22;9031;50.974;11.330;2023-02-28T11:08:24;10.00;38.40
17815;DHT22;9031;50.974;11.330;2023-02-28T11:11:09;10.70;36.90
17815;DHT22;9031;50.974;11.330;2023-02-28T11:13:36;10.70;34.80
17815;DHT22;9031;50.974;11.330;2023-02-28T11:16:09;9.60;38.80
17815;DHT22;9031;50.974;11.330;2023-02-28T11:18:50;11.30;35.50
17815;DHT22;9031;50.974;11.330;2023-02-28T11:21:23;14.40;31.60
17815;DHT22;9031;50.974;11.330;2023-02-28T11:23:52;13.10;31.80
17815;DHT22;9031;50.974;11.330;2023-02-28T11:26:45;11.60;33.20
17815;DHT22;9031;50.974;11.330;2023-02-28T11:29:22;10.40;35.40
17815;DHT22;9031;50.974;11.330;2023-02-28T11:32:02;12.00;35.20
17815;DHT22;9031;50.974;11.330;2023-02-28T11:34:28;12.10;29.90
17815;DHT22;9031;50.974;11.330;2023-02-28T11:36:55;13.00;31.70
17815;DHT22;9031;50.974;11.330;2023-02-28T11:39:22;13.90;30.00
17815;DHT22;9031;50.974;11.330;2023-02-28T11:52:13;12.30;31.30
17815;DHT22;9031;50.974;11.330;2023-02-28T11:57:36;10.60;36.20
17815;DHT22;9031;50.974;11.330;2023-02-28T12:00:19;14.40;30.70
17815;DHT22;9031;50.974;11.330;2023-02-28T12:05:43;13.80;30.00
17815;DHT22;9031;50.974;11.330;2023-02-28T12:13:54;11.30;33.70
17815;DHT22;9031;50.974;11.330;2023-02-28T12:19:21;12.00;32.80
17815;DHT22;9031;50.974;11.330;2023-02-28T12:27:44;12.70;31.60
17815;DHT22;9031;50.974;11.330;2023-02-28T12:30:25;11.40;33.30
17815;DHT22;9031;50.974;11.330;2023-02-28T12:33:08;12.50;32.70
17815;DHT22;9031;50.974;11.330;2023-02-28T12:35:44;12.80;30.60
17815;DHT22;9031;50.974;11.330;2023-02-28T12:38:16;11.40;33.90
17815;DHT22;9031;50.974;11.330;2023-02-28T12:40:52;12.00;33.10
17815;DHT22;9031;50.974;11.330;2023-02-28T12:43:20;12.20;33.30
17815;DHT22;9031;50.974;11.330;2023-02-28T12:45:57;13.50;31.20
17815;DHT22;9031;50.974;11.330;2023-02-28T12:48:29;12.50;31.80
17815;DHT22;9031;50.974;11.330;2023-02-28T12:50:56;12.40;32.10
17815;DHT22;9031;50.974;11.330;2023-02-28T12:53:32;12.20;32.10
17815;DHT22;9031;50.974;11.330;2023-02-28T12:59:03;12.90;33.40
17815;DHT22;9031;50.974;11.330;2023-02-28T13:02:09;13.50;31.00
17815;DHT22;9031;50.974;11.330;2023-02-28T13:04:56;14.20;29.60
17815;DHT22;9031;50.974;11.330;2023-02-28T13:10:15;14.60;28.90
17815;DHT22;9031;50.974;11.330;2023-02-28T13:12:50;14.30;29.80
17815;DHT22;9031;50.974;11.330;2023-02-28T13:15:28;13.40;30.50
17815;DHT22;9031;50.974;11.330;2023-02-28T13:17:57;12.50;32.70
17815;DHT22;9031;50.974;11.330;2023-02-28T13:20:34;12.10;34.60
17815;DHT22;9031;50.974;11.330;2023-02-28T13:23:00;12.00;34.80
17815;DHT22;9031;50.974;11.330;2023-02-28T13:28:00;11.30;37.20
17815;DHT22;9031;50.974;11.330;2023-02-28T13:44:23;7.60;43.30
17815;DHT22;9031;50.974;11.330;2023-02-28T14:03:22;5.80;49.60
17815;DHT22;9031;50.974;11.330;2023-02-28T14:06:25;5.90;49.50
17815;DHT22;9031;50.974;11.330;2023-02-28T14:09:24;6.80;47.80
17815;DHT22;9031;50.974;11.330;2023-02-28T14:11:48;6.80;46.60
17815;DHT22;9031;50.974;11.330;2023-02-28T14:17:03;7.20;45.20
17815;DHT22;9031;50.974;11.330;2023-02-28T14:19:31;7.00;46.00
17815;DHT22;9031;50.974;11.330;2023-02-28T14:26:58;6.30;48.00
17815;DHT22;9031;50.974;11.330;2023-02-28T14:32:21;5.80;49.10
17815;DHT22;9031;50.974;11.330;2023-02-28T14:35:02;5.20;50.40
17815;DHT22;9031;50.974;11.330;2023-02-28T14:37:34;4.80;52.10
17815;DHT22;9031;50.974;11.330;2023-02-28T14:40:04;5.30;51.80
17815;DHT22;9031;50.974;11.330;2023-02-28T14:42:34;5.70;50.20
17815;DHT22;9031;50.974;11.330;2023-02-28T14:45:00;5.60;51.40
17815;DHT22;9031;50.974;11.330;2023-02-28T14:47:32;5.10;51.80
17815;DHT22;9031;50.974;11.330;2023-02-28T14:49:59;5.10;51.90
17815;DHT22;9031;50.974;11.330;2023-02-28T14:52:30;5.70;50.30
17815;DHT22;9031;50.974;11.330;2023-02-28T14:55:10;5.80;50.20
17815;DHT22;9031;50.974;11.330;2023-02-28T14:57:50;6.00;49.90
17815;DHT22;9031;50.974;11.330;2023-02-28T15:00:22;6.10;49.80
17815;DHT22;9031;50.974;11.330;2023-02-28T15:02:48;6.60;49.20
17815;DHT22;9031;50.974;11.330;2023-02-28T15:07:42;7.50;47.00
17815;DHT22;9031;50.974;11.330;2023-02-28T15:12:37;5.70;50.00
17815;DHT22;9031;50.974;11.330;2023-02-28T15:15:05;5.10;51.40
17815;DHT22;9031;50.974;11.330;2023-02-28T15:17:31;4.90;52.70
17815;DHT22;9031;50.974;11.330;2023-02-28T15:19:57;4.90;53.30
17815;DHT22;9031;50.974;11.330;2023-02-28T15:22:36;4.90;52.40
17815;DHT22;9031;50.974;11.330;2023-02-28T15:25:04;5.10;52.40
17815;DHT22;9031;50.974;11.330;2023-02-28T15:27:32;5.30;52.80
17815;DHT22;9031;50.974;11.330;2023-02-28T15:30:01;5.60;52.30
17815;DHT22;9031;50.974;11.330;2023-02-28T15:32:33;5.70;51.40
17815;DHT22;9031;50.974;11.330;2023-02-28T15:35:16;5.80;51.80
17815;DHT22;9031;50.974;11.330;2023-02-28T15:37:48;5.40;51.90
17815;DHT22;9031;50.974;11.330;2023-02-28T15:40:36;5.30;52.40
17815;DHT22;9031;50.974;11.330;2023-02-28T15:43:11;5.50;52.40
17815;DHT22;9031;50.974;11.330;2023-02-28T15:45:56;5.60;53.00
17815;DHT22;9031;50.974;11.330;2023-02-28T15:48:29;5.40;52.20
17815;DHT22;9031;50.974;11.330;2023-02-28T15:51:01;5.10;54.00
17815;DHT22;9031;50.974;11.330;2023-02-28T15:53:33;5.20;53.70
17815;DHT22;9031;50.974;11.330;2023-02-28T15:56:03;4.50;55.20
17815;DHT22;9031;50.974;11.330;2023-02-28T15:58:30;4.70;55.10
17815;DHT22;9031;50.974;11.330;2023-02-28T16:01:23;4.80;54.80
17815;DHT22;9031;50.974;11.330;2023-02-28T16:03:54;4.40;55.40
17815;DHT22;9031;50.974;11.330;2023-02-28T16:08:50;3.50;58.00
17815;DHT22;9031;50.974;11.330;2023-02-28T16:11:16;3.30;58.60
17815;DHT22;9031;50.974;11.330;2023-02-28T16:13:42;3.00;58.80
17815;DHT22;9031;50.974;11.330;2023-02-28T16:16:08;3.00;58.80
17815;DHT22;9031;50.974;11.330;2023-02-28T16:18:33;2.90;59.30
17815;DHT22;9031;50.974;11.330;2023-02-28T16:21:00;2.70;60.30
17815;DHT22;9031;50.974;11.330;2023-02-28T16:23:25;2.60;61.20
17815;DHT22;9031;50.974;11.330;2023-02-28T16:25:51;2.70;61.20
17815;DHT22;9031;50.974;11.330;2023-02-28T16:28:25;2.70;61.40
17815;DHT22;9031;50.974;11.330;2023-02-28T16:30:55;2.60;61.60
17815;DHT22;9031;50.974;11.330;2023-02-28T16:33:20;2.40;62.90
17815;DHT22;9031;50.974;11.330;2023-02-28T16:35:46;2.20;63.80
17815;DHT22;9031;50.974;11.330;2023-02-28T16:38:11;2.20;64.00
17815;DHT22;9031;50.974;11.330;2023-02-28T16:40:37;2.10;64.80
17815;DHT22;9031;50.974;11.330;2023-02-28T16:43:08;2.00;65.10
17815;DHT22;9031;50.974;11.330;2023-02-28T16:45:37;2.10;65.30
17815;DHT22;9031;50.974;11.330;2023-02-28T16:48:02;2.10;66.00
17815;DHT22;9031;50.974;11.330;2023-02-28T16:50:30;2.00;66.40
17815;DHT22;9031;50.974;11.330;2023-02-28T16:52:57;1.90;66.20
17815;DHT22;9031;50.974;11.330;2023-02-28T16:55:24;1.80;66.90
17815;DHT22;9031;50.974;11.330;2023-02-28T16:58:01;1.70;68.30
17815;DHT22;9031;50.974;11.330;2023-02-28T17:00:29;1.70;66.80
17815;DHT22;9031;50.974;11.330;2023-02-28T17:02:56;1.80;66.20
17815;DHT22;9031;50.974;11.330;2023-02-28T17:05:22;1.80;66.80
17815;DHT22;9031;50.974;11.330;2023-02-28T17:07:48;1.70;66.90
17815;DHT22;9031;50.974;11.330;2023-02-28T17:10:22;1.60;67.60
17815;DHT22;9031;50.974;11.330;2023-02-28T17:12:48;1.50;68.10
17815;DHT22;9031;50.974;11.330;2023-02-28T17:15:16;1.40;69.20
17815;DHT22;9031;50.974;11.330;2023-02-28T17:17:42;1.30;69.40
17815;DHT22;9031;50.974;11.330;2023-02-28T17:20:20;1.40;69.00
17815;DHT22;9031;50.974;11.330;2023-02-28T17:22:48;1.40;69.40
17815;DHT22;9031;50.974;11.330;2023-02-28T17:25:14;1.30;69.70
17815;DHT22;9031;50.974;11.330;2023-02-28T17:27:39;1.30;70.70
17815;DHT22;9031;50.974;11.330;2023-02-28T17:30:26;1.30;70.00
17815;DHT22;9031;50.974;11.330;2023-02-28T17:32:56;1.30;70.30
17815;DHT22;9031;50.974;11.330;2023-02-28T17:35:22;1.20;71.10
17815;DHT22;9031;50.974;11.330;2023-02-28T17:37:48;1.10;71.90
17815;DHT22;9031;50.974;11.330;2023-02-28T17:40:20;1.10;72.50
17815;DHT22;9031;50.974;11.330;2023-02-28T17:42:45;1.00;72.40
17815;DHT22;9031;50.974;11.330;2023-02-28T17:45:13;1.00;72.70
17815;DHT22;9031;50.974;11.330;2023-02-28T17:47:39;0.90;73.60
17815;DHT22;9031;50.974;11.330;2023-02-28T17:50:04;0.80;73.70